Time;durP1;ratioP1;P1;durP2;ratioP2;P2;SDS_P1;SDS_P2;PMS_P1;PMS_P2;Temp;Humidity;BMP_temperature;BMP_pressure;BME280_temperature;BME280_humidity;BME280_pressure;Samples;Min_cycle;Max_cycle;Signal;HPM_P1;HPM_P2
2021/12/09 00:01:27;;;;;;;64.53;34.13;;;1.60;93.10;;;;;;4938515;29;20217;-91
2021/12/09 00:03:57;;;;;;;70.37;36.17;;;1.60;93.10;;;;;;4939606;29;20200;-92
2021/12/09 00:06:28;;;;;;;65.37;34.60;;;1.70;93.20;;;;;;4943403;29;20191;-91
2021/12/09 00:09:01;;;;;;;65.40;34.20;;;1.70;93.20;;;;;;4944072;29;20616;-92
2021/12/09 00:11:28;;;;;;;71.10;35.83;;;1.70;93.20;;;;;;4938257;29;20302;-91
2021/12/09 00:13:55;;;;;;;70.70;35.53;;;1.70;93.20;;;;;;4939801;29;20220;-91
2021/12/09 00:16:22;;;;;;;73.50;37.40;;;1.70;93.10;;;;;;4941161;29;20179;-91
2021/12/09 00:18:48;;;;;;;72.97;36.93;;;1.70;93.10;;;;;;4939207;29;20176;-93
2021/12/09 00:21:14;;;;;;;68.63;35.63;;;1.70;93.10;;;;;;4941768;29;20178;-90
2021/12/09 00:23:40;;;;;;;73.07;35.00;;;1.70;93.10;;;;;;4942169;29;20183;-91
2021/12/09 00:26:06;;;;;;;69.60;35.50;;;1.80;93.10;;;;;;4946554;29;20180;-93
2021/12/09 00:28:32;;;;;;;69.43;35.73;;;1.80;93.00;;;;;;4942389;29;20180;-92
2021/12/09 00:30:58;;;;;;;78.63;35.87;;;1.80;93.00;;;;;;4941676;29;20277;-91
2021/12/09 00:33:24;;;;;;;71.43;35.50;;;1.80;93.00;;;;;;4939649;29;20184;-91
2021/12/09 00:35:56;;;;;;;77.03;37.17;;;1.70;93.00;;;;;;4936981;29;20179;-91
2021/12/09 00:38:33;;;;;;;72.20;36.63;;;1.80;93.00;;;;;;4938599;29;20172;-91
2021/12/09 00:41:00;;;;;;;69.97;34.87;;;1.70;93.00;;;;;;4938107;29;20701;-90
2021/12/09 00:43:26;;;;;;;76.27;36.83;;;1.70;92.90;;;;;;4936672;29;20186;-91
2021/12/09 00:45:52;;;;;;;70.57;37.13;;;1.70;92.90;;;;;;4937620;29;20278;-90
2021/12/09 00:48:18;;;;;;;68.87;36.57;;;1.70;92.90;;;;;;4937532;29;20278;-91
2021/12/09 00:50:44;;;;;;;67.30;34.30;;;1.70;92.90;;;;;;4936510;29;20211;-91
2021/12/09 00:53:10;;;;;;;74.87;35.57;;;1.70;92.90;;;;;;4938235;29;20249;-91
2021/12/09 00:55:36;;;;;;;69.90;36.20;;;1.70;92.80;;;;;;4939878;29;20262;-90
2021/12/09 00:58:02;;;;;;;71.93;36.53;;;1.60;92.80;;;;;;4940183;29;20597;-92
2021/12/09 01:00:31;;;;;;;75.70;36.37;;;1.60;92.80;;;;;;4937123;29;20226;-91
2021/12/09 01:02:58;;;;;;;69.17;35.53;;;1.60;92.80;;;;;;4937917;29;20189;-92
2021/12/09 01:05:23;;;;;;;72.13;34.87;;;1.60;92.70;;;;;;4939510;29;20180;-92
2021/12/09 01:07:49;;;;;;;74.13;36.07;;;1.60;92.70;;;;;;4940276;29;20186;-92
2021/12/09 01:10:16;;;;;;;75.50;36.60;;;1.60;92.70;;;;;;4939369;29;20238;-90
2021/12/09 01:12:41;;;;;;;66.00;37.17;;;1.50;92.60;;;;;;4936734;29;20179;-90
2021/12/09 01:15:09;;;;;;;72.47;36.53;;;1.50;92.60;;;;;;4937055;29;20188;-92
2021/12/09 01:17:35;;;;;;;72.63;36.73;;;1.50;92.60;;;;;;4936003;29;20226;-91
2021/12/09 01:20:01;;;;;;;80.43;37.10;;;1.40;92.60;;;;;;4935918;29;20205;-91
2021/12/09 01:22:35;;;;;;;72.90;36.43;;;1.50;92.70;;;;;;4938259;29;20282;-91
2021/12/09 01:25:01;;;;;;;72.33;37.33;;;1.40;92.70;;;;;;4938776;29;20182;-91
2021/12/09 01:27:27;;;;;;;69.90;36.97;;;1.40;92.70;;;;;;4938357;29;20181;-92
2021/12/09 01:29:55;;;;;;;69.73;35.87;;;1.50;92.70;;;;;;4937354;29;20651;-90
2021/12/09 01:32:27;;;;;;;68.53;34.57;;;1.40;92.70;;;;;;4936684;29;20179;-91
2021/12/09 01:34:52;;;;;;;69.13;36.07;;;1.50;92.70;;;;;;4936619;29;20176;-92
2021/12/09 01:37:18;;;;;;;68.70;34.53;;;1.40;92.70;;;;;;4936415;29;20560;-91
2021/12/09 01:39:44;;;;;;;67.13;34.70;;;1.50;92.80;;;;;;4942567;29;20225;-93
2021/12/09 01:42:10;;;;;;;65.93;35.80;;;1.50;92.80;;;;;;4943376;29;20270;-91
2021/12/09 01:44:36;;;;;;;71.70;35.87;;;1.40;92.80;;;;;;4942680;29;20556;-90
2021/12/09 01:47:02;;;;;;;66.27;36.27;;;1.50;92.80;;;;;;4935992;29;20210;-91
2021/12/09 01:49:27;;;;;;;76.40;36.23;;;1.50;92.80;;;;;;4935607;29;20201;-90
2021/12/09 01:51:53;;;;;;;73.13;37.83;;;1.50;92.80;;;;;;4935230;29;20217;-90
2021/12/09 01:54:23;;;;;;;68.57;35.83;;;1.50;92.80;;;;;;4935011;29;20180;-91
2021/12/09 01:56:48;;;;;;;76.43;35.80;;;1.50;92.80;;;;;;4934995;29;20278;-89
2021/12/09 01:59:14;;;;;;;66.10;35.63;;;1.50;92.80;;;;;;4934910;29;20300;-90
2021/12/09 02:01:40;;;;;;;75.43;37.10;;;1.50;92.80;;;;;;4934872;29;20181;-90
2021/12/09 02:04:08;;;;;;;74.60;36.07;;;1.50;92.70;;;;;;4935000;29;20614;-90
2021/12/09 02:06:35;;;;;;;72.57;36.80;;;1.50;92.70;;;;;;4935833;29;20203;-92
2021/12/09 02:09:02;;;;;;;69.43;34.73;;;1.50;92.70;;;;;;4934887;29;20286;-92
2021/12/09 02:11:28;;;;;;;69.43;34.73;;;1.50;92.70;;;;;;4934658;29;20211;-91
2021/12/09 02:13:56;;;;;;;73.10;35.67;;;1.50;92.70;;;;;;4934861;29;20276;-91
2021/12/09 02:16:23;;;;;;;75.17;35.23;;;1.50;92.70;;;;;;4938826;29;20193;-92
2021/12/09 02:18:49;;;;;;;72.47;37.43;;;1.50;92.70;;;;;;4938650;29;20182;-92
2021/12/09 02:21:20;;;;;;;68.83;34.70;;;1.50;92.70;;;;;;4938546;29;20180;-93
2021/12/09 02:23:56;;;;;;;64.17;34.83;;;1.50;92.70;;;;;;4938477;29;20239;-91
2021/12/09 02:26:27;;;;;;;67.23;33.47;;;1.60;92.70;;;;;;4938574;29;20637;-91
2021/12/09 02:28:55;;;;;;;62.80;33.63;;;1.60;92.70;;;;;;4938642;29;20711;-90
2021/12/09 02:31:22;;;;;;;68.60;34.87;;;1.60;92.70;;;;;;4938826;29;20205;-90
2021/12/09 02:33:48;;;;;;;67.70;35.13;;;1.60;92.60;;;;;;4938430;29;20178;-90
2021/12/09 02:36:14;;;;;;;70.13;35.80;;;1.60;92.50;;;;;;4938792;29;20510;-90
2021/12/09 02:38:44;;;;;;;67.70;34.30;;;1.50;92.50;;;;;;4938225;29;20175;-91
2021/12/09 02:41:17;;;;;;;71.43;35.90;;;1.50;92.60;;;;;;4938253;29;20190;-90
2021/12/09 02:43:46;;;;;;;64.60;34.70;;;1.60;92.60;;;;;;4938146;29;20179;-90
2021/12/09 02:46:12;;;;;;;67.33;35.77;;;1.60;92.60;;;;;;4938196;29;20191;-90
2021/12/09 02:48:38;;;;;;;73.57;35.77;;;1.60;92.50;;;;;;4939028;29;20180;-91
2021/12/09 02:51:06;;;;;;;69.90;36.67;;;1.60;92.50;;;;;;4938493;29;20213;-90
2021/12/09 02:53:33;;;;;;;66.83;36.27;;;1.60;92.40;;;;;;4937983;29;20218;-90
2021/12/09 02:55:58;;;;;;;66.03;34.57;;;1.60;92.50;;;;;;4937989;29;20185;-90
2021/12/09 02:58:24;;;;;;;63.43;33.37;;;1.60;92.40;;;;;;4937818;29;20182;-89
2021/12/09 03:01:05;;;;;;;66.33;36.43;;;1.60;92.40;;;;;;4937634;29;20258;-91
2021/12/09 03:03:31;;;;;;;65.13;33.83;;;1.60;92.30;;;;;;4937755;29;20178;-91
2021/12/09 03:05:59;;;;;;;66.23;35.37;;;1.60;92.30;;;;;;4937680;29;20185;-90
2021/12/09 03:08:36;;;;;;;72.30;35.50;;;1.50;92.30;;;;;;4937848;29;20180;-91
2021/12/09 03:11:07;;;;;;;69.73;36.93;;;1.60;92.30;;;;;;4937673;29;20210;-92
2021/12/09 03:13:33;;;;;;;64.03;34.10;;;1.50;92.30;;;;;;4937770;29;20172;-90
2021/12/09 03:15:59;;;;;;;71.67;37.10;;;1.50;92.30;;;;;;4937655;29;20173;-91
2021/12/09 03:18:25;;;;;;;68.27;35.33;;;1.60;92.30;;;;;;4937744;29;20184;-92
2021/12/09 03:20:51;;;;;;;77.47;37.57;;;1.60;92.30;;;;;;4937338;29;20206;-91
2021/12/09 03:23:30;;;;;;;80.80;38.83;;;1.50;92.30;;;;;;5091643;27;20554;-90
2021/12/09 03:25:56;;;;;;;73.10;38.27;;;1.50;92.30;;;;;;5089712;28;20182;-91
2021/12/09 03:28:22;;;;;;;70.60;38.57;;;1.50;92.30;;;;;;5089747;28;20260;-90
2021/12/09 03:30:47;;;;;;;69.53;36.03;;;1.60;92.30;;;;;;5089944;28;20250;-91
2021/12/09 03:33:13;;;;;;;73.83;37.53;;;1.60;92.20;;;;;;5089662;28;20179;-91
2021/12/09 03:35:39;;;;;;;79.40;38.13;;;1.50;92.10;;;;;;5112516;22;20275;-93
2021/12/09 03:38:05;;;;;;;69.33;37.07;;;1.50;92.10;;;;;;5090028;28;20212;-93
2021/12/09 03:40:30;;;;;;;75.33;37.37;;;1.50;92.20;;;;;;5090147;28;20167;-92
2021/12/09 03:42:56;;;;;;;75.63;37.77;;;1.60;92.20;;;;;;5089954;28;20193;-93
2021/12/09 03:45:22;;;;;;;69.40;35.70;;;1.50;92.20;;;;;;5089854;28;20245;-93
2021/12/09 03:47:48;;;;;;;76.07;37.10;;;1.50;92.20;;;;;;5089742;28;20564;-93
2021/12/09 03:50:17;;;;;;;72.37;36.63;;;1.50;92.20;;;;;;5090019;28;20262;-93
2021/12/09 03:52:43;;;;;;;72.37;37.30;;;1.50;92.30;;;;;;5089755;28;20228;-93
2021/12/09 03:55:09;;;;;;;71.90;36.83;;;1.50;92.30;;;;;;5089486;28;20296;-93
2021/12/09 03:57:35;;;;;;;78.60;37.77;;;1.50;92.30;;;;;;5090917;28;20173;-93
2021/12/09 04:00:03;;;;;;;74.80;36.23;;;1.50;92.30;;;;;;5089781;28;20561;-93
2021/12/09 04:02:28;;;;;;;76.47;38.03;;;1.50;92.30;;;;;;5089731;28;20198;-93
2021/12/09 04:04:54;;;;;;;72.57;37.53;;;1.50;92.30;;;;;;5089600;28;20199;-93
2021/12/09 04:07:20;;;;;;;73.13;37.93;;;1.50;92.30;;;;;;5089235;28;20201;-93
2021/12/09 04:09:45;;;;;;;80.03;39.13;;;1.50;92.20;;;;;;5089667;28;20543;-93
2021/12/09 04:12:14;;;;;;;75.03;38.67;;;1.50;92.20;;;;;;5089724;28;20185;-93
2021/12/09 04:14:40;;;;;;;70.80;36.37;;;1.50;92.20;;;;;;5090721;28;20701;-93
2021/12/09 04:17:05;;;;;;;70.70;39.07;;;1.50;92.20;;;;;;5089606;28;20182;-93
2021/12/09 04:19:31;;;;;;;78.50;39.17;;;1.50;92.20;;;;;;5090787;28;20178;-93
2021/12/09 04:21:58;;;;;;;75.90;37.97;;;1.50;92.30;;;;;;5090267;28;20200;-93
2021/12/09 04:24:23;;;;;;;79.60;40.00;;;1.50;92.20;;;;;;5089178;28;20730;-93
2021/12/09 04:26:51;;;;;;;74.87;38.43;;;1.50;92.20;;;;;;5089069;28;20267;-93
2021/12/09 04:29:18;;;;;;;75.87;40.93;;;1.50;92.20;;;;;;5089149;28;20181;-93
2021/12/09 04:31:47;;;;;;;77.53;38.20;;;1.50;92.20;;;;;;5089109;28;20266;-93
2021/12/09 04:34:13;;;;;;;80.50;39.33;;;1.50;92.20;;;;;;5079213;28;20266;-93
2021/12/09 04:36:39;;;;;;;77.97;38.97;;;1.50;92.20;;;;;;5075635;28;20175;-93
2021/12/09 04:39:06;;;;;;;79.27;39.60;;;1.50;92.20;;;;;;5075552;28;20200;-93
2021/12/09 04:41:32;;;;;;;82.03;39.00;;;1.50;92.20;;;;;;5075434;28;20258;-93
2021/12/09 04:43:58;;;;;;;79.57;38.50;;;1.50;92.10;;;;;;5075672;28;20191;-93
2021/12/09 04:46:24;;;;;;;83.77;38.87;;;1.50;92.10;;;;;;5075412;28;20177;-93
2021/12/09 04:48:49;;;;;;;78.47;39.80;;;1.40;92.10;;;;;;5075445;28;20732;-93
2021/12/09 04:51:15;;;;;;;83.63;39.50;;;1.40;92.10;;;;;;5076510;28;20179;-93
2021/12/09 04:53:41;;;;;;;84.87;39.17;;;1.40;92.20;;;;;;5076467;28;20222;-93
2021/12/09 04:56:07;;;;;;;84.17;38.30;;;1.40;92.20;;;;;;5075214;28;20192;-93
2021/12/09 04:58:33;;;;;;;77.47;38.50;;;1.40;92.20;;;;;;5074837;28;20643;-93
2021/12/09 05:01:00;;;;;;;87.37;39.53;;;1.40;92.20;;;;;;5076131;28;20174;-94
2021/12/09 05:03:25;;;;;;;85.20;40.47;;;1.30;92.20;;;;;;5075210;28;20206;-93
2021/12/09 05:05:54;;;;;;;89.60;42.43;;;1.30;92.20;;;;;;5075267;28;20250;-93
2021/12/09 05:08:23;;;;;;;87.40;40.93;;;1.30;92.20;;;;;;5076136;28;20180;-93
2021/12/09 05:11:07;;;;;;;89.53;40.33;;;1.30;92.20;;;;;;5074952;28;20181;-93
2021/12/09 05:13:35;;;;;;;87.53;40.17;;;1.30;92.30;;;;;;5074642;28;20209;-93
2021/12/09 05:16:01;;;;;;;91.03;40.63;;;1.30;92.30;;;;;;5074624;28;20175;-93
2021/12/09 05:18:29;;;;;;;76.13;40.40;;;1.30;92.30;;;;;;5074621;28;20659;-94
2021/12/09 05:20:55;;;;;;;88.17;42.70;;;1.30;92.30;;;;;;5075061;28;20181;-93
2021/12/09 05:23:22;;;;;;;91.67;43.33;;;1.30;92.30;;;;;;5074859;28;20205;-93
2021/12/09 05:25:48;;;;;;;92.90;43.23;;;1.30;92.40;;;;;;5075034;28;20198;-93
2021/12/09 05:28:16;;;;;;;87.30;41.97;;;1.30;92.40;;;;;;5074374;28;20712;-93
2021/12/09 05:33:32;;;;;;;90.37;43.50;;;1.30;92.30;;;;;;5076158;28;20170;-93
2021/12/09 05:35:58;;;;;;;91.20;42.47;;;1.30;92.30;;;;;;5075095;28;20217;-93
2021/12/09 05:38:25;;;;;;;92.60;42.67;;;1.30;92.30;;;;;;5075094;28;20176;-93
2021/12/09 05:40:51;;;;;;;83.97;40.60;;;1.30;92.30;;;;;;5074270;28;20193;-93
2021/12/09 05:43:17;;;;;;;90.23;41.60;;;1.30;92.20;;;;;;5074227;28;20210;-93
2021/12/09 05:45:44;;;;;;;94.80;43.53;;;1.30;92.20;;;;;;5073048;28;20549;-93
2021/12/09 05:48:10;;;;;;;87.33;42.00;;;1.30;92.20;;;;;;5074242;28;20223;-93
2021/12/09 05:50:38;;;;;;;95.97;43.80;;;1.30;92.20;;;;;;5074385;28;20179;-93
2021/12/09 05:53:04;;;;;;;90.60;42.27;;;1.30;92.10;;;;;;5074145;28;20175;-93
2021/12/09 05:55:30;;;;;;;90.10;43.13;;;1.30;92.10;;;;;;5073843;28;20274;-93
2021/12/09 05:57:55;;;;;;;87.33;43.63;;;1.30;92.00;;;;;;5074003;28;20182;-93
2021/12/09 06:00:21;;;;;;;85.73;43.80;;;1.30;92.00;;;;;;5073928;28;20189;-93
2021/12/09 06:02:47;;;;;;;89.77;40.87;;;1.30;91.90;;;;;;5074083;28;20207;-93
2021/12/09 06:05:12;;;;;;;87.93;41.57;;;1.30;91.90;;;;;;5075157;28;20197;-93
2021/12/09 06:07:38;;;;;;;90.37;40.37;;;1.30;92.00;;;;;;5075625;28;20193;-93
2021/12/09 06:10:05;;;;;;;92.93;43.43;;;1.30;92.00;;;;;;5074859;28;20171;-93
2021/12/09 06:12:31;;;;;;;85.90;40.80;;;1.30;92.00;;;;;;5073641;28;20703;-93
2021/12/09 06:14:57;;;;;;;89.43;42.67;;;1.30;91.90;;;;;;5073492;28;20196;-93
2021/12/09 06:17:23;;;;;;;89.83;43.00;;;1.30;91.90;;;;;;5074780;28;20257;-93
2021/12/09 06:19:48;;;;;;;95.60;42.77;;;1.30;91.90;;;;;;5073517;28;20179;-92
2021/12/09 06:22:14;;;;;;;86.57;40.93;;;1.30;91.90;;;;;;5073671;28;20251;-93
2021/12/09 06:24:41;;;;;;;88.80;41.80;;;1.30;91.90;;;;;;5073409;28;20614;-93
2021/12/09 06:27:07;;;;;;;84.87;42.13;;;1.30;91.90;;;;;;5073401;28;20172;-93
2021/12/09 06:29:33;;;;;;;87.60;41.37;;;1.30;91.80;;;;;;5073377;28;20544;-93
2021/12/09 06:32:00;;;;;;;88.67;41.90;;;1.30;91.80;;;;;;5073400;28;20202;-93
2021/12/09 06:34:26;;;;;;;87.53;41.77;;;1.30;91.80;;;;;;5073546;28;20234;-93
2021/12/09 06:36:52;;;;;;;92.63;42.37;;;1.30;91.80;;;;;;5073378;28;20228;-93
2021/12/09 06:39:17;;;;;;;87.43;43.20;;;1.30;91.80;;;;;;5073427;28;20189;-93
2021/12/09 06:41:44;;;;;;;96.70;43.33;;;1.30;91.80;;;;;;5074328;28;20194;-93
2021/12/09 06:44:10;;;;;;;89.67;41.73;;;1.30;91.80;;;;;;5073036;28;20198;-93
2021/12/09 06:46:37;;;;;;;92.83;44.27;;;1.30;91.80;;;;;;5072899;28;20683;-93
2021/12/09 06:49:04;;;;;;;98.00;44.33;;;1.30;91.80;;;;;;5073374;28;20182;-93
2021/12/09 06:51:29;;;;;;;93.63;42.93;;;1.30;91.80;;;;;;5074480;28;20171;-93
2021/12/09 06:53:56;;;;;;;88.77;41.37;;;1.30;91.80;;;;;;5074016;28;20184;-93
2021/12/09 06:56:22;;;;;;;93.57;41.97;;;1.30;91.80;;;;;;5073043;28;20187;-93
2021/12/09 06:58:48;;;;;;;96.47;44.67;;;1.30;91.80;;;;;;5073186;28;20181;-93
2021/12/09 07:01:15;;;;;;;95.37;41.93;;;1.30;91.80;;;;;;5073500;28;20168;-93
2021/12/09 07:03:40;;;;;;;88.97;42.43;;;1.30;91.90;;;;;;5072835;28;20179;-92
2021/12/09 07:06:08;;;;;;;89.10;42.33;;;1.30;91.80;;;;;;5073466;28;20182;-93
2021/12/09 07:08:40;;;;;;;93.73;44.33;;;1.30;91.90;;;;;;5073480;28;20194;-93
2021/12/09 07:11:06;;;;;;;97.93;43.37;;;1.30;91.90;;;;;;5073158;28;20248;-93
2021/12/09 07:13:32;;;;;;;94.67;42.23;;;1.30;91.90;;;;;;5074261;28;20175;-93
2021/12/09 07:15:59;;;;;;;91.37;41.37;;;1.30;91.90;;;;;;5072949;28;20255;-93
2021/12/09 07:18:25;;;;;;;87.17;41.37;;;1.30;91.90;;;;;;5074078;28;20179;-93
2021/12/09 07:20:55;;;;;;;94.93;43.97;;;1.30;91.80;;;;;;5074643;28;20534;-93
2021/12/09 07:23:21;;;;;;;92.73;44.37;;;1.30;91.70;;;;;;5074126;28;20201;-93
2021/12/09 07:25:47;;;;;;;92.43;43.93;;;1.30;91.70;;;;;;5072619;28;20199;-93
2021/12/09 07:28:13;;;;;;;95.23;45.10;;;1.20;91.70;;;;;;5072619;28;20177;-93
2021/12/09 07:30:39;;;;;;;89.00;43.90;;;1.30;91.60;;;;;;5072762;28;20242;-93
2021/12/09 07:33:04;;;;;;;101.93;45.27;;;1.30;91.60;;;;;;5072780;28;20208;-93
2021/12/09 07:35:31;;;;;;;97.17;43.27;;;1.20;91.50;;;;;;5072754;28;20272;-93
2021/12/09 07:38:06;;;;;;;95.00;45.33;;;1.20;91.50;;;;;;5072875;28;20550;-93
2021/12/09 07:40:32;;;;;;;98.77;45.27;;;1.20;91.60;;;;;;5073332;28;20176;-93
2021/12/09 07:42:58;;;;;;;96.03;45.90;;;1.20;91.70;;;;;;5073801;28;20285;-93
2021/12/09 07:45:24;;;;;;;103.37;46.87;;;1.20;91.70;;;;;;5073191;28;20197;-93
2021/12/09 07:47:50;;;;;;;96.50;44.13;;;1.20;91.60;;;;;;5073110;28;20171;-93
2021/12/09 07:50:19;;;;;;;88.77;43.07;;;1.20;91.80;;;;;;5073201;28;20183;-93
2021/12/09 07:52:48;;;;;;;93.60;44.17;;;1.20;91.70;;;;;;5073219;28;20775;-93
2021/12/09 07:55:15;;;;;;;99.27;45.53;;;1.20;91.70;;;;;;5072838;28;20196;-93
2021/12/09 07:57:42;;;;;;;90.80;42.50;;;1.30;91.70;;;;;;5072852;28;20176;-93
2021/12/09 08:00:34;;;;;;;92.70;43.30;;;1.30;91.70;;;;;;5073834;28;20181;-94
2021/12/09 08:03:01;;;;;;;91.23;43.00;;;1.30;91.50;;;;;;5073401;28;20207;-93
2021/12/09 08:05:38;;;;;;;98.30;45.17;;;1.30;91.50;;;;;;5072739;28;20217;-93
2021/12/09 08:08:05;;;;;;;86.37;42.97;;;1.30;91.50;;;;;;5072895;28;20172;-93
2021/12/09 08:10:30;;;;;;;94.67;43.00;;;1.30;91.50;;;;;;5077503;28;20544;-93
2021/12/09 08:12:58;;;;;;;89.07;41.97;;;1.30;91.60;;;;;;5076036;28;20175;-93
2021/12/09 08:15:24;;;;;;;84.37;40.40;;;1.30;91.60;;;;;;5077190;28;20670;-93
2021/12/09 08:21:02;;;;;;;89.90;43.43;;;1.20;91.60;;;;;;5035498;28;20174;-93
2021/12/09 08:23:29;;;;;;;93.73;43.53;;;1.30;91.60;;;;;;5035257;28;20622;-93
2021/12/09 08:25:57;;;;;;;83.00;40.27;;;1.30;91.60;;;;;;5047799;28;20253;-93
2021/12/09 08:28:23;;;;;;;86.37;41.87;;;1.30;91.40;;;;;;5075809;28;20175;-93
2021/12/09 08:30:51;;;;;;;91.37;42.50;;;1.30;91.50;;;;;;5076556;28;20182;-93
2021/12/09 08:33:18;;;;;;;91.23;41.53;;;1.30;91.50;;;;;;5076229;28;20166;-93
2021/12/09 08:35:44;;;;;;;88.07;40.87;;;1.30;91.60;;;;;;5075501;28;20229;-93
2021/12/09 08:38:10;;;;;;;96.93;42.73;;;1.20;91.60;;;;;;5076212;28;20625;-93
2021/12/09 08:40:36;;;;;;;101.37;42.07;;;1.30;91.70;;;;;;5075349;28;20647;-93
2021/12/09 08:43:02;;;;;;;94.73;43.17;;;1.20;91.70;;;;;;5075260;28;20202;-93
2021/12/09 08:45:29;;;;;;;101.30;44.27;;;1.20;91.90;;;;;;5075603;28;20194;-93
2021/12/09 08:47:54;;;;;;;95.23;44.93;;;1.30;91.90;;;;;;5075809;28;20220;-92
2021/12/09 08:50:23;;;;;;;100.17;44.57;;;1.30;91.90;;;;;;5075362;28;20517;-93
2021/12/09 08:52:51;;;;;;;93.03;44.03;;;1.30;91.90;;;;;;5074899;28;20181;-93
2021/12/09 08:55:18;;;;;;;104.13;45.10;;;1.30;91.80;;;;;;5075403;28;20250;-93
2021/12/09 08:57:46;;;;;;;90.00;42.20;;;1.30;91.80;;;;;;5075609;28;20184;-93
2021/12/09 09:00:13;;;;;;;97.83;44.23;;;1.30;91.90;;;;;;5075095;28;20219;-93
2021/12/09 09:02:41;;;;;;;89.97;42.90;;;1.30;91.70;;;;;;5074972;28;20208;-93
2021/12/09 09:05:10;;;;;;;89.57;42.83;;;1.30;91.80;;;;;;5075296;28;20574;-93
2021/12/09 09:07:37;;;;;;;88.70;42.07;;;1.40;91.70;;;;;;5075179;28;20193;-93
2021/12/09 09:10:04;;;;;;;95.50;44.07;;;1.40;91.70;;;;;;5075287;28;20175;-93
2021/12/09 09:12:30;;;;;;;98.40;44.53;;;1.40;91.60;;;;;;5074895;28;20652;-93
2021/12/09 09:14:56;;;;;;;104.07;45.00;;;1.40;91.70;;;;;;5076569;28;20273;-93
2021/12/09 09:17:21;;;;;;;96.73;44.00;;;1.40;91.70;;;;;;5077584;28;20177;-93
2021/12/09 09:19:47;;;;;;;99.33;46.10;;;1.40;91.70;;;;;;5078025;28;20217;-94
2021/12/09 09:22:13;;;;;;;94.23;44.73;;;1.40;91.70;;;;;;5079695;28;20193;-93
2021/12/09 09:24:40;;;;;;;87.63;42.70;;;1.50;91.80;;;;;;5076890;28;20217;-92
2021/12/09 09:27:06;;;;;;;96.67;46.37;;;1.40;91.70;;;;;;5074109;28;20178;-92
2021/12/09 09:29:34;;;;;;;95.23;45.57;;;1.50;91.80;;;;;;5076320;28;20171;-93
2021/12/09 09:32:00;;;;;;;96.10;44.87;;;1.50;91.60;;;;;;5074154;28;20224;-93
2021/12/09 09:34:26;;;;;;;103.87;45.27;;;1.50;91.70;;;;;;5152876;22;21275;-93
2021/12/09 09:36:52;;;;;;;90.33;43.33;;;1.60;91.70;;;;;;5099432;28;20677;-93
2021/12/09 09:39:21;;;;;;;88.87;42.43;;;1.60;91.60;;;;;;5099302;28;20172;-93
2021/12/09 09:42:01;;;;;;;84.70;41.63;;;1.60;91.50;;;;;;5104591;28;20226;-92
2021/12/09 09:44:33;;;;;;;95.90;42.70;;;1.60;91.40;;;;;;5101060;28;20197;-93
2021/12/09 09:47:02;;;;;;;93.70;43.27;;;1.60;91.40;;;;;;5099278;28;20657;-92
2021/12/09 09:49:30;;;;;;;90.70;44.77;;;1.60;91.30;;;;;;5101386;28;20183;-92
2021/12/09 09:51:57;;;;;;;97.20;44.37;;;1.60;91.40;;;;;;5100253;28;20181;-91
2021/12/09 09:54:25;;;;;;;97.23;46.13;;;1.60;91.30;;;;;;5101453;28;20203;-91
2021/12/09 09:56:51;;;;;;;99.30;46.00;;;1.60;91.30;;;;;;5101384;28;20180;-92
2021/12/09 09:59:17;;;;;;;98.17;45.93;;;1.70;91.30;;;;;;5097017;28;20173;-93
2021/12/09 10:01:45;;;;;;;93.93;44.27;;;1.80;91.30;;;;;;5097239;28;20626;-94
2021/12/09 10:04:14;;;;;;;95.43;45.53;;;1.70;91.20;;;;;;5096467;28;20264;-93
2021/12/09 10:06:43;;;;;;;97.03;45.13;;;1.80;91.20;;;;;;5094361;28;20172;-93
2021/12/09 10:09:10;;;;;;;96.20;45.37;;;1.80;91.30;;;;;;5094136;28;20200;-94
2021/12/09 10:11:36;;;;;;;94.27;44.43;;;1.80;91.30;;;;;;5094068;28;20171;-93
2021/12/09 10:14:15;;;;;;;95.70;44.70;;;1.80;91.30;;;;;;5094097;28;20171;-93
2021/12/09 10:16:42;;;;;;;106.60;47.30;;;1.80;91.00;;;;;;5093933;28;20170;-90
2021/12/09 10:19:21;;;;;;;105.63;45.00;;;1.80;91.10;;;;;;5094091;28;20185;-93
2021/12/09 10:21:48;;;;;;;106.63;47.10;;;1.80;91.20;;;;;;5094741;28;20188;-92
2021/12/09 10:24:16;;;;;;;100.60;44.43;;;1.80;91.00;;;;;;5095357;28;20178;-91
2021/12/09 10:26:47;;;;;;;94.93;46.60;;;1.80;90.90;;;;;;5095519;28;20733;-91
2021/12/09 10:29:33;;;;;;;106.20;47.73;;;1.90;90.90;;;;;;5093539;28;20201;-93
2021/12/09 10:32:02;;;;;;;102.63;45.60;;;1.90;91.00;;;;;;5094067;28;20212;-90
2021/12/09 10:34:37;;;;;;;95.23;44.27;;;2.00;91.00;;;;;;5093643;28;20198;-92
2021/12/09 10:37:23;;;;;;;94.43;44.83;;;2.00;91.00;;;;;;5094507;28;20173;-93
2021/12/09 10:39:54;;;;;;;100.70;45.40;;;1.90;90.90;;;;;;5096406;28;20214;-91
2021/12/09 10:42:29;;;;;;;96.80;45.33;;;2.00;91.00;;;;;;5093718;28;20209;-93
2021/12/09 10:45:13;;;;;;;95.37;41.20;;;1.90;90.90;;;;;;5093158;28;20199;-92
2021/12/09 10:48:11;;;;;;;95.53;44.53;;;1.90;90.80;;;;;;5093387;28;20165;-93
2021/12/09 10:50:47;;;;;;;93.43;43.67;;;1.90;90.80;;;;;;5093898;28;20160;-92
2021/12/09 10:55:53;;;;;;;93.57;43.63;;;1.80;91.00;;;;;;5094348;28;20289;-92
2021/12/09 10:58:22;;;;;;;88.53;40.03;;;1.70;91.40;;;;;;5093456;28;20252;-92
2021/12/09 11:00:55;;;;;;;92.17;42.43;;;1.80;91.70;;;;;;5092990;28;20189;-93
2021/12/09 11:03:32;;;;;;;87.77;39.20;;;1.80;91.60;;;;;;5093686;28;20294;-91
2021/12/09 11:06:05;;;;;;;97.67;43.37;;;1.70;91.80;;;;;;5092851;28;20203;-93
2021/12/09 11:08:35;;;;;;;91.33;42.37;;;1.70;91.70;;;;;;5093127;28;20221;-93
2021/12/09 11:11:15;;;;;;;92.80;41.97;;;1.80;91.90;;;;;;5092551;28;20175;-92
2021/12/09 11:13:43;;;;;;;92.13;42.53;;;1.90;91.80;;;;;;5092997;28;20167;-92
2021/12/09 11:16:09;;;;;;;95.77;42.57;;;1.80;91.70;;;;;;5092702;28;20199;-91
2021/12/09 11:18:41;;;;;;;89.67;43.97;;;1.90;91.60;;;;;;5093498;28;20213;-92
2021/12/09 11:21:17;;;;;;;91.67;41.23;;;1.90;91.50;;;;;;5094044;28;20165;-93
2021/12/09 11:23:49;;;;;;;93.13;44.37;;;2.00;91.60;;;;;;5095700;28;20198;-92
2021/12/09 11:26:33;;;;;;;93.83;42.60;;;2.10;91.50;;;;;;5095286;28;20609;-92
2021/12/09 11:29:05;;;;;;;95.30;42.93;;;2.00;91.50;;;;;;5095855;28;20169;-93
2021/12/09 11:31:34;;;;;;;100.37;43.50;;;2.10;91.50;;;;;;5096037;28;20161;-93
2021/12/09 11:34:10;;;;;;;91.43;43.10;;;2.20;91.50;;;;;;5096070;28;20171;-93
2021/12/09 11:36:40;;;;;;;92.90;42.77;;;2.20;91.40;;;;;;5095839;28;20188;-92
2021/12/09 11:39:11;;;;;;;85.43;41.03;;;2.20;91.40;;;;;;5095837;28;20180;-92
2021/12/09 11:41:39;;;;;;;94.40;41.03;;;2.20;91.20;;;;;;5095649;28;20232;-93
2021/12/09 11:44:08;;;;;;;90.33;41.97;;;2.20;91.10;;;;;;5097426;28;20270;-92
2021/12/09 11:46:35;;;;;;;96.90;43.57;;;2.20;91.10;;;;;;5099884;28;20178;-92
2021/12/09 11:49:02;;;;;;;90.50;44.70;;;2.20;91.20;;;;;;5100434;28;20178;-92
2021/12/09 11:51:28;;;;;;;98.03;43.27;;;2.20;91.20;;;;;;5099969;28;20190;-93
2021/12/09 11:53:56;;;;;;;94.57;44.17;;;2.30;91.20;;;;;;5098890;28;20180;-92
2021/12/09 12:07:31;;;;;;;97.17;44.87;;;2.40;91.10;;;;;;5100814;28;20224;-93
2021/12/09 12:12:54;;;;;;;99.50;46.03;;;2.30;91.00;;;;;;5100712;28;20220;-92
2021/12/09 12:18:47;;;;;;;99.03;43.13;;;2.30;90.80;;;;;;5100292;28;20217;-92
2021/12/09 12:41:10;;;;;;;93.47;43.23;;;2.50;90.50;;;;;;5100782;28;20227;-92
2021/12/09 12:43:41;;;;;;;90.73;42.67;;;2.50;90.50;;;;;;5099028;28;20199;-92
2021/12/09 12:46:18;;;;;;;96.30;44.60;;;2.50;90.40;;;;;;5098331;28;20187;-93
2021/12/09 12:49:09;;;;;;;95.77;43.57;;;2.60;90.60;;;;;;5098672;28;20586;-93
2021/12/09 12:51:46;;;;;;;90.13;43.70;;;2.60;90.40;;;;;;5098656;28;20162;-93
2021/12/09 12:54:20;;;;;;;88.30;42.73;;;2.60;90.20;;;;;;5097499;28;20162;-93
2021/12/09 12:56:55;;;;;;;99.87;46.13;;;2.60;90.20;;;;;;5099075;28;20165;-93
2021/12/09 12:59:39;;;;;;;94.40;45.83;;;2.60;90.20;;;;;;5098751;28;20657;-92
2021/12/09 13:02:30;;;;;;;96.23;41.80;;;2.60;90.20;;;;;;5098302;28;20193;-93
2021/12/09 13:05:03;;;;;;;86.53;44.00;;;2.60;90.10;;;;;;5098446;28;20187;-93
2021/12/09 13:13:39;;;;;;;95.07;44.13;;;2.60;90.50;;;;;;5099096;28;20165;-92
2021/12/09 13:21:54;;;;;;;94.40;44.60;;;2.50;90.40;;;;;;5100052;28;20177;-93
2021/12/09 13:24:43;;;;;;;89.40;41.40;;;2.50;90.40;;;;;;5097828;28;20164;-93
2021/12/09 13:27:24;;;;;;;88.87;42.50;;;2.40;90.60;;;;;;5099601;28;20163;-93
2021/12/09 13:30:09;;;;;;;86.70;42.87;;;2.40;90.90;;;;;;5097736;28;20183;-92
2021/12/09 13:39:12;;;;;;;86.20;41.37;;;2.40;91.10;;;;;;5099477;28;20162;-94
2021/12/09 13:47:12;;;;;;;91.17;41.93;;;2.40;91.10;;;;;;5098863;28;20161;-93
2021/12/09 13:49:49;;;;;;;87.17;43.17;;;2.30;90.90;;;;;;5098967;28;20180;-93
2021/12/09 13:55:12;;;;;;;82.77;41.90;;;2.40;91.10;;;;;;5099384;28;20541;-93